aviador You're here:

LFRQ Decoded Metar

QUIMPER in FRANCE
Report Time2017-09-23 09:00:00
UTC Time2017-09-23 09:06:15
Flight Rules vfr VFR
Wind130° at 07 kt
W.Decomp.*RWY 10: 5.9 kt HW 3.8 kt RCW
W.Rank130° ranks 33
Current wind is above 130° avg. (6.7)
Visibility9999 m
Phenomena:N/A
Clouds:N/A
Expected CloudBase > 1,200 ft AGL from Temp-Dew spread
CeilingNone
Temp15°C (ISA +1)
Dew Point12°C (82% RH)
AAT13.1°C
QNH1020 hPa
Density Alt331 ft
Elevation308 ft
Report Wrong Elevation
Raw Report
METAR LFRQ 230900Z AUTO 13007KT 090V160 CAVOK 15/12 Q1020 NOSIG=

Extra information for LFRQ:More info

Metar Taf Metar & Taf Last 4 Metars F.Rules Stats Wind Profile Meteogram Temp Stats Airport Information Weather charts Add Link Nearby VenuesMetar ALERT Operation Metar Decoded Social comments